sensor_id;sensor_type;location;lat;lon;timestamp;temperature;humidity
3699;DHT22;1865;50.918;7.092;2022-07-23T00:02:06;23.50;50.40
3699;DHT22;1865;50.918;7.092;2022-07-23T00:04:35;23.40;50.50
3699;DHT22;1865;50.918;7.092;2022-07-23T00:07:01;23.40;50.40
3699;DHT22;1865;50.918;7.092;2022-07-23T00:09:27;23.40;50.60
3699;DHT22;1865;50.918;7.092;2022-07-23T00:11:54;23.40;50.50
3699;DHT22;1865;50.918;7.092;2022-07-23T00:14:19;23.40;50.40
3699;DHT22;1865;50.918;7.092;2022-07-23T00:16:48;23.40;50.90
3699;DHT22;1865;50.918;7.092;2022-07-23T00:19:13;23.40;50.70
3699;DHT22;1865;50.918;7.092;2022-07-23T00:21:40;23.40;51.20
3699;DHT22;1865;50.918;7.092;2022-07-23T00:24:19;23.50;51.30
3699;DHT22;1865;50.918;7.092;2022-07-23T00:26:45;23.40;50.90
3699;DHT22;1865;50.918;7.092;2022-07-23T00:29:11;23.40;50.90
3699;DHT22;1865;50.918;7.092;2022-07-23T00:31:39;23.40;50.90
3699;DHT22;1865;50.918;7.092;2022-07-23T00:34:09;23.30;51.40
3699;DHT22;1865;50.918;7.092;2022-07-23T00:36:35;23.30;51.50
3699;DHT22;1865;50.918;7.092;2022-07-23T00:39:05;23.30;51.40
3699;DHT22;1865;50.918;7.092;2022-07-23T00:41:32;23.30;51.80
3699;DHT22;1865;50.918;7.092;2022-07-23T00:46:46;23.20;52.10
3699;DHT22;1865;50.918;7.092;2022-07-23T00:49:27;23.10;52.70
3699;DHT22;1865;50.918;7.092;2022-07-23T00:51:55;23.10;52.80
3699;DHT22;1865;50.918;7.092;2022-07-23T00:54:24;23.00;52.70
3699;DHT22;1865;50.918;7.092;2022-07-23T00:56:52;23.00;52.70
3699;DHT22;1865;50.918;7.092;2022-07-23T00:59:19;23.10;52.90
3699;DHT22;1865;50.918;7.092;2022-07-23T01:01:49;23.00;52.90
3699;DHT22;1865;50.918;7.092;2022-07-23T01:04:16;23.00;52.90
3699;DHT22;1865;50.918;7.092;2022-07-23T01:06:51;23.00;53.10
3699;DHT22;1865;50.918;7.092;2022-07-23T01:09:20;22.90;53.50
3699;DHT22;1865;50.918;7.092;2022-07-23T01:11:47;22.90;53.40
3699;DHT22;1865;50.918;7.092;2022-07-23T01:14:21;22.80;53.70
3699;DHT22;1865;50.918;7.092;2022-07-23T01:16:48;22.80;54.00
3699;DHT22;1865;50.918;7.092;2022-07-23T01:19:16;22.80;54.30
3699;DHT22;1865;50.918;7.092;2022-07-23T01:21:44;22.80;54.60
3699;DHT22;1865;50.918;7.092;2022-07-23T01:24:11;22.60;54.40
3699;DHT22;1865;50.918;7.092;2022-07-23T01:26:37;22.60;54.60
3699;DHT22;1865;50.918;7.092;2022-07-23T01:29:07;22.60;55.00
3699;DHT22;1865;50.918;7.092;2022-07-23T01:31:32;22.60;55.10
3699;DHT22;1865;50.918;7.092;2022-07-23T01:34:00;22.60;55.80
3699;DHT22;1865;50.918;7.092;2022-07-23T01:36:27;22.50;55.60
3699;DHT22;1865;50.918;7.092;2022-07-23T01:38:53;22.50;55.80
3699;DHT22;1865;50.918;7.092;2022-07-23T01:41:19;22.50;56.40
3699;DHT22;1865;50.918;7.092;2022-07-23T01:43:46;22.30;56.60
3699;DHT22;1865;50.918;7.092;2022-07-23T01:46:14;22.30;56.90
3699;DHT22;1865;50.918;7.092;2022-07-23T01:48:40;22.30;57.00
3699;DHT22;1865;50.918;7.092;2022-07-23T01:51:06;22.30;57.10
3699;DHT22;1865;50.918;7.092;2022-07-23T01:53:33;22.30;57.30
3699;DHT22;1865;50.918;7.092;2022-07-23T01:56:01;22.30;57.30
3699;DHT22;1865;50.918;7.092;2022-07-23T01:58:29;22.20;57.60
3699;DHT22;1865;50.918;7.092;2022-07-23T02:00:55;22.30;57.70
3699;DHT22;1865;50.918;7.092;2022-07-23T02:03:22;22.30;58.40
3699;DHT22;1865;50.918;7.092;2022-07-23T02:05:50;22.10;58.60
3699;DHT22;1865;50.918;7.092;2022-07-23T02:08:19;22.00;59.10
3699;DHT22;1865;50.918;7.092;2022-07-23T02:11:06;22.00;60.00
3699;DHT22;1865;50.918;7.092;2022-07-23T02:13:35;21.90;60.60
3699;DHT22;1865;50.918;7.092;2022-07-23T02:16:01;21.80;60.90
3699;DHT22;1865;50.918;7.092;2022-07-23T02:18:26;21.80;61.30
3699;DHT22;1865;50.918;7.092;2022-07-23T02:24:14;21.70;62.00
3699;DHT22;1865;50.918;7.092;2022-07-23T02:26:40;21.60;62.70
3699;DHT22;1865;50.918;7.092;2022-07-23T02:29:05;21.60;63.10
3699;DHT22;1865;50.918;7.092;2022-07-23T02:31:32;21.50;62.90
3699;DHT22;1865;50.918;7.092;2022-07-23T02:33:58;21.50;63.10
3699;DHT22;1865;50.918;7.092;2022-07-23T02:36:23;21.60;63.40
3699;DHT22;1865;50.918;7.092;2022-07-23T02:38:49;21.60;63.30
3699;DHT22;1865;50.918;7.092;2022-07-23T02:41:16;21.60;64.10
3699;DHT22;1865;50.918;7.092;2022-07-23T02:43:41;21.50;63.40
3699;DHT22;1865;50.918;7.092;2022-07-23T02:46:08;21.50;63.60
3699;DHT22;1865;50.918;7.092;2022-07-23T02:48:37;21.60;63.70
3699;DHT22;1865;50.918;7.092;2022-07-23T02:51:04;21.50;63.20
3699;DHT22;1865;50.918;7.092;2022-07-23T02:53:31;21.50;63.50
3699;DHT22;1865;50.918;7.092;2022-07-23T02:55:59;21.50;63.70
3699;DHT22;1865;50.918;7.092;2022-07-23T02:58:25;21.50;63.70
3699;DHT22;1865;50.918;7.092;2022-07-23T03:00:53;21.50;63.90
3699;DHT22;1865;50.918;7.092;2022-07-23T03:03:20;21.40;63.90
3699;DHT22;1865;50.918;7.092;2022-07-23T03:05:47;21.50;64.20
3699;DHT22;1865;50.918;7.092;2022-07-23T03:08:12;21.40;64.10
3699;DHT22;1865;50.918;7.092;2022-07-23T03:10:38;21.40;64.20
3699;DHT22;1865;50.918;7.092;2022-07-23T03:13:04;21.40;64.00
3699;DHT22;1865;50.918;7.092;2022-07-23T03:15:31;21.30;64.10
3699;DHT22;1865;50.918;7.092;2022-07-23T03:17:57;21.40;64.20
3699;DHT22;1865;50.918;7.092;2022-07-23T03:20:24;21.30;64.10
3699;DHT22;1865;50.918;7.092;2022-07-23T03:22:49;21.30;64.20
3699;DHT22;1865;50.918;7.092;2022-07-23T03:25:16;21.30;64.00
3699;DHT22;1865;50.918;7.092;2022-07-23T03:27:42;21.30;63.90
3699;DHT22;1865;50.918;7.092;2022-07-23T03:30:08;21.30;63.90
3699;DHT22;1865;50.918;7.092;2022-07-23T03:32:33;21.20;63.60
3699;DHT22;1865;50.918;7.092;2022-07-23T03:34:59;21.20;63.80
3699;DHT22;1865;50.918;7.092;2022-07-23T03:37:27;21.20;63.60
3699;DHT22;1865;50.918;7.092;2022-07-23T03:39:57;21.10;63.80
3699;DHT22;1865;50.918;7.092;2022-07-23T03:42:22;21.10;63.90
3699;DHT22;1865;50.918;7.092;2022-07-23T03:44:49;21.00;64.10
3699;DHT22;1865;50.918;7.092;2022-07-23T03:47:14;20.90;64.20
3699;DHT22;1865;50.918;7.092;2022-07-23T03:49:42;20.90;64.30
3699;DHT22;1865;50.918;7.092;2022-07-23T03:52:10;20.90;64.10
3699;DHT22;1865;50.918;7.092;2022-07-23T03:54:35;20.90;64.00
3699;DHT22;1865;50.918;7.092;2022-07-23T03:57:03;20.90;64.10
3699;DHT22;1865;50.918;7.092;2022-07-23T03:59:31;20.80;64.10
3699;DHT22;1865;50.918;7.092;2022-07-23T04:01:58;20.90;64.10
3699;DHT22;1865;50.918;7.092;2022-07-23T04:04:24;20.90;63.90
3699;DHT22;1865;50.918;7.092;2022-07-23T04:06:49;20.90;63.90
3699;DHT22;1865;50.918;7.092;2022-07-23T04:09:15;20.80;64.00
3699;DHT22;1865;50.918;7.092;2022-07-23T04:11:42;20.80;64.20
3699;DHT22;1865;50.918;7.092;2022-07-23T04:14:07;20.80;64.10
3699;DHT22;1865;50.918;7.092;2022-07-23T04:16:33;20.80;64.00
3699;DHT22;1865;50.918;7.092;2022-07-23T04:18:59;20.80;64.10
3699;DHT22;1865;50.918;7.092;2022-07-23T04:21:29;20.80;64.00
3699;DHT22;1865;50.918;7.092;2022-07-23T04:23:54;20.80;64.10
3699;DHT22;1865;50.918;7.092;2022-07-23T04:26:23;20.80;63.70
3699;DHT22;1865;50.918;7.092;2022-07-23T04:28:48;20.80;63.40
3699;DHT22;1865;50.918;7.092;2022-07-23T04:31:14;20.80;63.40
3699;DHT22;1865;50.918;7.092;2022-07-23T04:33:40;20.70;63.40
3699;DHT22;1865;50.918;7.092;2022-07-23T04:36:07;20.80;63.40
3699;DHT22;1865;50.918;7.092;2022-07-23T04:38:33;20.80;63.50
3699;DHT22;1865;50.918;7.092;2022-07-23T04:41:01;20.80;63.60
3699;DHT22;1865;50.918;7.092;2022-07-23T04:43:28;20.70;63.70
3699;DHT22;1865;50.918;7.092;2022-07-23T04:45:55;20.80;63.60
3699;DHT22;1865;50.918;7.092;2022-07-23T04:48:20;20.70;63.80
3699;DHT22;1865;50.918;7.092;2022-07-23T04:50:46;20.70;63.70
3699;DHT22;1865;50.918;7.092;2022-07-23T04:53:12;20.80;63.70
3699;DHT22;1865;50.918;7.092;2022-07-23T04:55:37;20.80;63.50
3699;DHT22;1865;50.918;7.092;2022-07-23T04:58:04;20.80;63.40
3699;DHT22;1865;50.918;7.092;2022-07-23T05:00:31;20.80;63.40
3699;DHT22;1865;50.918;7.092;2022-07-23T05:02:57;20.80;63.50
3699;DHT22;1865;50.918;7.092;2022-07-23T05:05:22;20.80;63.60
3699;DHT22;1865;50.918;7.092;2022-07-23T05:07:49;20.80;63.40
3699;DHT22;1865;50.918;7.092;2022-07-23T05:10:15;20.80;63.50
3699;DHT22;1865;50.918;7.092;2022-07-23T05:12:40;20.90;63.60
3699;DHT22;1865;50.918;7.092;2022-07-23T05:15:07;20.90;63.60
3699;DHT22;1865;50.918;7.092;2022-07-23T05:17:33;20.90;63.60
3699;DHT22;1865;50.918;7.092;2022-07-23T05:20:00;21.00;63.50
3699;DHT22;1865;50.918;7.092;2022-07-23T05:22:25;21.00;63.60
3699;DHT22;1865;50.918;7.092;2022-07-23T05:24:55;21.00;63.60
3699;DHT22;1865;50.918;7.092;2022-07-23T05:27:21;21.00;63.80
3699;DHT22;1865;50.918;7.092;2022-07-23T05:29:47;21.00;63.60
3699;DHT22;1865;50.918;7.092;2022-07-23T05:32:12;21.00;63.40
3699;DHT22;1865;50.918;7.092;2022-07-23T05:34:40;21.10;63.70
3699;DHT22;1865;50.918;7.092;2022-07-23T05:37:05;21.10;63.60
3699;DHT22;1865;50.918;7.092;2022-07-23T05:39:33;21.10;63.70
3699;DHT22;1865;50.918;7.092;2022-07-23T05:41:58;21.20;63.60
3699;DHT22;1865;50.918;7.092;2022-07-23T05:44:24;21.20;63.60
3699;DHT22;1865;50.918;7.092;2022-07-23T05:46:52;21.20;63.50
3699;DHT22;1865;50.918;7.092;2022-07-23T05:49:19;21.30;63.40
3699;DHT22;1865;50.918;7.092;2022-07-23T05:51:45;21.30;63.20
3699;DHT22;1865;50.918;7.092;2022-07-23T05:54:10;21.30;63.30
3699;DHT22;1865;50.918;7.092;2022-07-23T05:56:36;21.30;62.80
3699;DHT22;1865;50.918;7.092;2022-07-23T05:59:03;21.30;63.00
3699;DHT22;1865;50.918;7.092;2022-07-23T06:01:32;21.40;62.90
3699;DHT22;1865;50.918;7.092;2022-07-23T06:03:57;21.40;62.70
3699;DHT22;1865;50.918;7.092;2022-07-23T06:06:23;21.40;62.90
3699;DHT22;1865;50.918;7.092;2022-07-23T06:08:48;21.40;63.80
3699;DHT22;1865;50.918;7.092;2022-07-23T06:11:14;21.50;63.00
3699;DHT22;1865;50.918;7.092;2022-07-23T06:13:40;21.60;63.00
3699;DHT22;1865;50.918;7.092;2022-07-23T06:16:05;21.60;62.80
3699;DHT22;1865;50.918;7.092;2022-07-23T06:18:31;21.60;62.90
3699;DHT22;1865;50.918;7.092;2022-07-23T06:20:57;21.70;62.80
3699;DHT22;1865;50.918;7.092;2022-07-23T06:23:25;21.70;62.70
3699;DHT22;1865;50.918;7.092;2022-07-23T06:25:51;21.70;62.60
3699;DHT22;1865;50.918;7.092;2022-07-23T06:28:17;21.70;62.60
3699;DHT22;1865;50.918;7.092;2022-07-23T06:30:43;21.80;62.60
3699;DHT22;1865;50.918;7.092;2022-07-23T06:33:09;21.80;62.50
3699;DHT22;1865;50.918;7.092;2022-07-23T06:35:36;21.80;62.20
3699;DHT22;1865;50.918;7.092;2022-07-23T06:38:03;21.90;62.20
3699;DHT22;1865;50.918;7.092;2022-07-23T06:40:30;22.00;62.10
3699;DHT22;1865;50.918;7.092;2022-07-23T06:42:56;22.00;61.70
3699;DHT22;1865;50.918;7.092;2022-07-23T06:45:23;22.00;61.40
3699;DHT22;1865;50.918;7.092;2022-07-23T06:47:49;22.10;61.40
3699;DHT22;1865;50.918;7.092;2022-07-23T06:50:16;22.00;61.00
3699;DHT22;1865;50.918;7.092;2022-07-23T06:52:43;22.10;61.20
3699;DHT22;1865;50.918;7.092;2022-07-23T06:55:09;22.20;60.70
3699;DHT22;1865;50.918;7.092;2022-07-23T06:57:36;22.20;60.60
3699;DHT22;1865;50.918;7.092;2022-07-23T07:00:03;22.30;60.40
3699;DHT22;1865;50.918;7.092;2022-07-23T07:02:29;22.30;60.20
3699;DHT22;1865;50.918;7.092;2022-07-23T07:04:54;22.40;60.00
3699;DHT22;1865;50.918;7.092;2022-07-23T07:07:21;22.40;59.60
3699;DHT22;1865;50.918;7.092;2022-07-23T07:09:46;22.40;58.60
3699;DHT22;1865;50.918;7.092;2022-07-23T07:12:12;22.50;58.70
3699;DHT22;1865;50.918;7.092;2022-07-23T07:14:38;22.60;58.40
3699;DHT22;1865;50.918;7.092;2022-07-23T07:17:08;22.60;57.60
3699;DHT22;1865;50.918;7.092;2022-07-23T07:19:36;22.50;57.90
3699;DHT22;1865;50.918;7.092;2022-07-23T07:22:03;22.50;57.90
3699;DHT22;1865;50.918;7.092;2022-07-23T07:24:28;22.60;57.30
3699;DHT22;1865;50.918;7.092;2022-07-23T07:26:55;22.60;56.70
3699;DHT22;1865;50.918;7.092;2022-07-23T07:29:21;22.70;56.20
3699;DHT22;1865;50.918;7.092;2022-07-23T07:31:51;22.70;56.20
3699;DHT22;1865;50.918;7.092;2022-07-23T07:34:17;22.80;56.50
3699;DHT22;1865;50.918;7.092;2022-07-23T07:36:42;22.90;55.70
3699;DHT22;1865;50.918;7.092;2022-07-23T07:39:08;22.90;56.30
3699;DHT22;1865;50.918;7.092;2022-07-23T07:41:39;23.00;55.70
3699;DHT22;1865;50.918;7.092;2022-07-23T07:44:04;23.10;54.60
3699;DHT22;1865;50.918;7.092;2022-07-23T07:46:30;23.10;54.70
3699;DHT22;1865;50.918;7.092;2022-07-23T07:48:55;23.20;54.50
3699;DHT22;1865;50.918;7.092;2022-07-23T07:51:21;23.30;53.80
3699;DHT22;1865;50.918;7.092;2022-07-23T07:53:48;23.40;53.00
3699;DHT22;1865;50.918;7.092;2022-07-23T07:56:20;23.40;53.40
3699;DHT22;1865;50.918;7.092;2022-07-23T07:58:45;23.50;52.60
3699;DHT22;1865;50.918;7.092;2022-07-23T08:01:11;23.60;53.30
3699;DHT22;1865;50.918;7.092;2022-07-23T08:03:37;23.70;52.80
3699;DHT22;1865;50.918;7.092;2022-07-23T08:06:02;23.80;52.80
3699;DHT22;1865;50.918;7.092;2022-07-23T08:08:29;23.90;52.10
3699;DHT22;1865;50.918;7.092;2022-07-23T08:10:56;24.00;52.20
3699;DHT22;1865;50.918;7.092;2022-07-23T08:13:25;24.10;52.20
3699;DHT22;1865;50.918;7.092;2022-07-23T08:15:51;24.20;51.60
3699;DHT22;1865;50.918;7.092;2022-07-23T08:18:21;24.20;51.60
3699;DHT22;1865;50.918;7.092;2022-07-23T08:20:47;24.30;51.70
3699;DHT22;1865;50.918;7.092;2022-07-23T08:23:12;24.30;50.40
3699;DHT22;1865;50.918;7.092;2022-07-23T08:25:40;24.30;50.30
3699;DHT22;1865;50.918;7.092;2022-07-23T08:28:11;24.30;50.90
3699;DHT22;1865;50.918;7.092;2022-07-23T08:30:41;24.40;51.90
3699;DHT22;1865;50.918;7.092;2022-07-23T08:33:10;24.40;51.70
3699;DHT22;1865;50.918;7.092;2022-07-23T08:35:49;24.40;51.20
3699;DHT22;1865;50.918;7.092;2022-07-23T08:38:19;24.30;51.10
3699;DHT22;1865;50.918;7.092;2022-07-23T08:40:48;24.20;50.60
3699;DHT22;1865;50.918;7.092;2022-07-23T08:43:29;24.20;50.90
3699;DHT22;1865;50.918;7.092;2022-07-23T08:45:58;24.10;51.60
3699;DHT22;1865;50.918;7.092;2022-07-23T08:48:30;24.10;51.70
3699;DHT22;1865;50.918;7.092;2022-07-23T08:50:57;24.00;50.20
3699;DHT22;1865;50.918;7.092;2022-07-23T08:53:25;24.10;50.70
3699;DHT22;1865;50.918;7.092;2022-07-23T08:55:54;24.10;51.20
3699;DHT22;1865;50.918;7.092;2022-07-23T08:58:20;24.20;50.80
3699;DHT22;1865;50.918;7.092;2022-07-23T09:00:48;24.40;50.40
3699;DHT22;1865;50.918;7.092;2022-07-23T09:03:23;24.40;50.00
3699;DHT22;1865;50.918;7.092;2022-07-23T09:05:51;24.40;50.00
3699;DHT22;1865;50.918;7.092;2022-07-23T09:08:21;24.40;49.90
3699;DHT22;1865;50.918;7.092;2022-07-23T09:13:50;24.60;49.10
3699;DHT22;1865;50.918;7.092;2022-07-23T09:16:29;24.50;48.80
3699;DHT22;1865;50.918;7.092;2022-07-23T09:19:03;24.50;48.40
3699;DHT22;1865;50.918;7.092;2022-07-23T09:21:30;24.50;47.80
3699;DHT22;1865;50.918;7.092;2022-07-23T09:24:12;24.70;48.50
3699;DHT22;1865;50.918;7.092;2022-07-23T09:26:47;24.70;47.50
3699;DHT22;1865;50.918;7.092;2022-07-23T09:29:24;24.70;47.70
3699;DHT22;1865;50.918;7.092;2022-07-23T09:31:57;24.90;47.80
3699;DHT22;1865;50.918;7.092;2022-07-23T09:34:33;25.00;46.50
3699;DHT22;1865;50.918;7.092;2022-07-23T09:37:17;25.00;47.00
3699;DHT22;1865;50.918;7.092;2022-07-23T09:39:48;25.00;46.10
3699;DHT22;1865;50.918;7.092;2022-07-23T09:42:17;25.00;47.30
3699;DHT22;1865;50.918;7.092;2022-07-23T09:44:52;25.20;46.80
3699;DHT22;1865;50.918;7.092;2022-07-23T09:47:21;25.30;46.20
3699;DHT22;1865;50.918;7.092;2022-07-23T09:50:01;25.30;46.80
3699;DHT22;1865;50.918;7.092;2022-07-23T09:52:52;25.70;45.10
3699;DHT22;1865;50.918;7.092;2022-07-23T09:55:18;25.80;44.40
3699;DHT22;1865;50.918;7.092;2022-07-23T09:57:47;26.00;44.80
3699;DHT22;1865;50.918;7.092;2022-07-23T10:00:19;26.00;44.80
3699;DHT22;1865;50.918;7.092;2022-07-23T10:02:46;25.90;44.20
3699;DHT22;1865;50.918;7.092;2022-07-23T10:05:12;25.90;43.30
3699;DHT22;1865;50.918;7.092;2022-07-23T10:07:40;26.00;44.00
3699;DHT22;1865;50.918;7.092;2022-07-23T10:10:07;26.10;44.20
3699;DHT22;1865;50.918;7.092;2022-07-23T10:12:35;26.30;43.00
3699;DHT22;1865;50.918;7.092;2022-07-23T10:15:07;26.30;43.20
3699;DHT22;1865;50.918;7.092;2022-07-23T10:17:35;26.40;43.50
3699;DHT22;1865;50.918;7.092;2022-07-23T10:20:01;26.40;43.00
3699;DHT22;1865;50.918;7.092;2022-07-23T10:22:33;26.30;41.70
3699;DHT22;1865;50.918;7.092;2022-07-23T10:25:22;26.20;42.60
3699;DHT22;1865;50.918;7.092;2022-07-23T10:28:30;26.20;42.30
3699;DHT22;1865;50.918;7.092;2022-07-23T10:31:25;26.20;42.60
3699;DHT22;1865;50.918;7.092;2022-07-23T10:37:07;26.40;41.50
3699;DHT22;1865;50.918;7.092;2022-07-23T10:39:41;26.60;42.00
3699;DHT22;1865;50.918;7.092;2022-07-23T10:42:16;26.70;41.20
3699;DHT22;1865;50.918;7.092;2022-07-23T10:44:48;26.80;41.10
3699;DHT22;1865;50.918;7.092;2022-07-23T10:47:29;26.90;40.10
3699;DHT22;1865;50.918;7.092;2022-07-23T10:50:26;27.10;41.20
3699;DHT22;1865;50.918;7.092;2022-07-23T10:57:57;27.10;37.60
3699;DHT22;1865;50.918;7.092;2022-07-23T11:00:24;27.10;39.00
3699;DHT22;1865;50.918;7.092;2022-07-23T11:02:52;26.90;39.00
3699;DHT22;1865;50.918;7.092;2022-07-23T11:05:20;27.10;39.70
3699;DHT22;1865;50.918;7.092;2022-07-23T11:10:38;27.10;37.70
3699;DHT22;1865;50.918;7.092;2022-07-23T11:27:04;28.80;36.20
3699;DHT22;1865;50.918;7.092;2022-07-23T11:32:18;29.10;34.70
3699;DHT22;1865;50.918;7.092;2022-07-23T11:34:47;29.10;34.90
3699;DHT22;1865;50.918;7.092;2022-07-23T11:37:41;29.10;35.10
3699;DHT22;1865;50.918;7.092;2022-07-23T11:40:14;29.00;35.70
3699;DHT22;1865;50.918;7.092;2022-07-23T11:45:41;28.60;36.00
3699;DHT22;1865;50.918;7.092;2022-07-23T11:48:26;28.50;36.30
3699;DHT22;1865;50.918;7.092;2022-07-23T11:50:56;28.50;35.60
3699;DHT22;1865;50.918;7.092;2022-07-23T11:53:30;28.50;36.00
3699;DHT22;1865;50.918;7.092;2022-07-23T11:56:09;28.40;35.40
3699;DHT22;1865;50.918;7.092;2022-07-23T11:58:36;28.50;35.50
3699;DHT22;1865;50.918;7.092;2022-07-23T12:01:02;28.60;34.70
3699;DHT22;1865;50.918;7.092;2022-07-23T12:03:29;28.70;35.20
3699;DHT22;1865;50.918;7.092;2022-07-23T12:05:58;28.80;35.20
3699;DHT22;1865;50.918;7.092;2022-07-23T12:08:24;29.10;35.80
3699;DHT22;1865;50.918;7.092;2022-07-23T12:10:50;29.20;34.60
3699;DHT22;1865;50.918;7.092;2022-07-23T12:13:18;29.50;34.40
3699;DHT22;1865;50.918;7.092;2022-07-23T12:15:50;29.90;33.50
3699;DHT22;1865;50.918;7.092;2022-07-23T12:18:20;30.30;32.80
3699;DHT22;1865;50.918;7.092;2022-07-23T12:20:48;30.70;31.70
3699;DHT22;1865;50.918;7.092;2022-07-23T12:23:18;30.90;30.60
3699;DHT22;1865;50.918;7.092;2022-07-23T12:25:45;30.70;30.30
3699;DHT22;1865;50.918;7.092;2022-07-23T12:30:52;31.10;29.80
3699;DHT22;1865;50.918;7.092;2022-07-23T12:33:24;31.80;28.90
3699;DHT22;1865;50.918;7.092;2022-07-23T12:35:58;32.20;27.50
3699;DHT22;1865;50.918;7.092;2022-07-23T12:38:25;32.70;27.00
3699;DHT22;1865;50.918;7.092;2022-07-23T12:40:58;33.50;27.10
3699;DHT22;1865;50.918;7.092;2022-07-23T12:43:32;34.30;25.30
3699;DHT22;1865;50.918;7.092;2022-07-23T12:46:05;34.70;24.30
3699;DHT22;1865;50.918;7.092;2022-07-23T12:53:50;33.90;24.60
3699;DHT22;1865;50.918;7.092;2022-07-23T12:56:26;33.10;25.80
3699;DHT22;1865;50.918;7.092;2022-07-23T12:59:08;32.70;27.00
3699;DHT22;1865;50.918;7.092;2022-07-23T13:01:42;32.20;27.90
3699;DHT22;1865;50.918;7.092;2022-07-23T13:04:19;31.80;27.30
3699;DHT22;1865;50.918;7.092;2022-07-23T13:06:47;31.50;28.50
3699;DHT22;1865;50.918;7.092;2022-07-23T13:09:24;31.40;29.00
3699;DHT22;1865;50.918;7.092;2022-07-23T13:11:50;31.40;29.20
3699;DHT22;1865;50.918;7.092;2022-07-23T13:14:20;31.40;28.90
3699;DHT22;1865;50.918;7.092;2022-07-23T13:16:48;31.60;28.40
3699;DHT22;1865;50.918;7.092;2022-07-23T13:19:14;31.90;29.00
3699;DHT22;1865;50.918;7.092;2022-07-23T13:21:48;31.90;28.60
3699;DHT22;1865;50.918;7.092;2022-07-23T13:24:16;31.80;28.50
3699;DHT22;1865;50.918;7.092;2022-07-23T13:26:42;32.00;28.70
3699;DHT22;1865;50.918;7.092;2022-07-23T13:29:07;32.90;27.80
3699;DHT22;1865;50.918;7.092;2022-07-23T13:31:34;34.30;27.40
3699;DHT22;1865;50.918;7.092;2022-07-23T13:34:03;36.60;24.10
3699;DHT22;1865;50.918;7.092;2022-07-23T13:36:29;36.90;24.20
3699;DHT22;1865;50.918;7.092;2022-07-23T13:38:55;38.20;22.10
3699;DHT22;1865;50.918;7.092;2022-07-23T13:41:21;38.80;21.80
3699;DHT22;1865;50.918;7.092;2022-07-23T13:43:47;39.00;21.00
3699;DHT22;1865;50.918;7.092;2022-07-23T13:46:15;39.30;20.80
3699;DHT22;1865;50.918;7.092;2022-07-23T13:48:42;40.00;20.50
3699;DHT22;1865;50.918;7.092;2022-07-23T13:51:08;40.70;19.80
3699;DHT22;1865;50.918;7.092;2022-07-23T13:53:38;40.80;18.40
3699;DHT22;1865;50.918;7.092;2022-07-23T13:56:03;40.00;19.30
3699;DHT22;1865;50.918;7.092;2022-07-23T13:58:29;40.00;20.10
3699;DHT22;1865;50.918;7.092;2022-07-23T14:00:54;39.80;19.90
3699;DHT22;1865;50.918;7.092;2022-07-23T14:03:24;40.60;19.80
3699;DHT22;1865;50.918;7.092;2022-07-23T14:05:54;40.20;19.70
3699;DHT22;1865;50.918;7.092;2022-07-23T14:08:20;38.70;20.40
3699;DHT22;1865;50.918;7.092;2022-07-23T14:10:46;37.60;21.40
3699;DHT22;1865;50.918;7.092;2022-07-23T14:13:11;37.60;21.70
3699;DHT22;1865;50.918;7.092;2022-07-23T14:15:40;38.00;21.20
3699;DHT22;1865;50.918;7.092;2022-07-23T14:18:06;38.20;21.30
3699;DHT22;1865;50.918;7.092;2022-07-23T14:20:33;37.20;21.70
3699;DHT22;1865;50.918;7.092;2022-07-23T14:22:58;36.20;22.70
3699;DHT22;1865;50.918;7.092;2022-07-23T14:25:26;35.30;24.00
3699;DHT22;1865;50.918;7.092;2022-07-23T14:27:51;34.60;24.80
3699;DHT22;1865;50.918;7.092;2022-07-23T14:30:18;34.00;25.40
3699;DHT22;1865;50.918;7.092;2022-07-23T14:32:43;33.40;26.10
3699;DHT22;1865;50.918;7.092;2022-07-23T14:35:09;33.00;26.40
3699;DHT22;1865;50.918;7.092;2022-07-23T14:40:49;32.10;26.80
3699;DHT22;1865;50.918;7.092;2022-07-23T14:43:18;31.80;27.90
3699;DHT22;1865;50.918;7.092;2022-07-23T14:45:45;31.70;28.40
3699;DHT22;1865;50.918;7.092;2022-07-23T14:48:10;31.50;28.90
3699;DHT22;1865;50.918;7.092;2022-07-23T14:50:38;31.40;29.10
3699;DHT22;1865;50.918;7.092;2022-07-23T14:53:03;31.30;28.00
3699;DHT22;1865;50.918;7.092;2022-07-23T14:55:31;31.40;28.10
3699;DHT22;1865;50.918;7.092;2022-07-23T14:57:57;31.20;28.60
3699;DHT22;1865;50.918;7.092;2022-07-23T15:00:22;31.10;29.90
3699;DHT22;1865;50.918;7.092;2022-07-23T15:02:48;31.00;28.60
3699;DHT22;1865;50.918;7.092;2022-07-23T15:05:13;31.00;29.40
3699;DHT22;1865;50.918;7.092;2022-07-23T15:07:41;30.90;28.90
3699;DHT22;1865;50.918;7.092;2022-07-23T15:10:07;30.90;29.10
3699;DHT22;1865;50.918;7.092;2022-07-23T15:12:33;30.90;28.50
3699;DHT22;1865;50.918;7.092;2022-07-23T15:14:59;30.70;29.50
3699;DHT22;1865;50.918;7.092;2022-07-23T15:17:24;30.70;29.30
3699;DHT22;1865;50.918;7.092;2022-07-23T15:19:50;30.70;29.40
3699;DHT22;1865;50.918;7.092;2022-07-23T15:22:16;30.70;29.50
3699;DHT22;1865;50.918;7.092;2022-07-23T15:24:47;30.60;29.40
3699;DHT22;1865;50.918;7.092;2022-07-23T15:27:14;30.50;29.90
3699;DHT22;1865;50.918;7.092;2022-07-23T15:29:42;30.50;29.00
3699;DHT22;1865;50.918;7.092;2022-07-23T15:32:08;30.50;29.00
3699;DHT22;1865;50.918;7.092;2022-07-23T15:34:34;30.50;29.00
3699;DHT22;1865;50.918;7.092;2022-07-23T15:37:00;30.60;29.60
3699;DHT22;1865;50.918;7.092;2022-07-23T15:39:27;30.60;28.90
3699;DHT22;1865;50.918;7.092;2022-07-23T15:41:54;30.60;29.60
3699;DHT22;1865;50.918;7.092;2022-07-23T15:44:20;30.60;29.90
3699;DHT22;1865;50.918;7.092;2022-07-23T15:46:46;30.50;29.60
3699;DHT22;1865;50.918;7.092;2022-07-23T15:49:14;30.50;29.70
3699;DHT22;1865;50.918;7.092;2022-07-23T15:51:41;30.50;29.80
3699;DHT22;1865;50.918;7.092;2022-07-23T15:54:06;30.60;29.90
3699;DHT22;1865;50.918;7.092;2022-07-23T15:56:32;30.50;29.40
3699;DHT22;1865;50.918;7.092;2022-07-23T15:59:00;30.40;28.90
3699;DHT22;1865;50.918;7.092;2022-07-23T16:01:28;30.20;29.40
3699;DHT22;1865;50.918;7.092;2022-07-23T16:03:55;30.20;29.80
3699;DHT22;1865;50.918;7.092;2022-07-23T16:06:23;30.30;29.70
3699;DHT22;1865;50.918;7.092;2022-07-23T16:08:49;30.20;29.30
3699;DHT22;1865;50.918;7.092;2022-07-23T16:11:16;30.20;29.40
3699;DHT22;1865;50.918;7.092;2022-07-23T16:13:43;30.30;29.50
3699;DHT22;1865;50.918;7.092;2022-07-23T16:16:10;30.30;29.80
3699;DHT22;1865;50.918;7.092;2022-07-23T16:18:38;30.40;29.40
3699;DHT22;1865;50.918;7.092;2022-07-23T16:21:04;30.30;28.70
3699;DHT22;1865;50.918;7.092;2022-07-23T16:23:30;30.20;29.20
3699;DHT22;1865;50.918;7.092;2022-07-23T16:25:59;30.20;28.70
3699;DHT22;1865;50.918;7.092;2022-07-23T16:28:25;30.20;28.70
3699;DHT22;1865;50.918;7.092;2022-07-23T16:30:52;30.20;28.70
3699;DHT22;1865;50.918;7.092;2022-07-23T16:33:17;30.10;28.90
3699;DHT22;1865;50.918;7.092;2022-07-23T16:35:43;30.00;30.00
3699;DHT22;1865;50.918;7.092;2022-07-23T16:38:09;30.00;29.90
3699;DHT22;1865;50.918;7.092;2022-07-23T16:40:36;30.00;30.10
3699;DHT22;1865;50.918;7.092;2022-07-23T16:43:02;29.80;29.40
3699;DHT22;1865;50.918;7.092;2022-07-23T16:45:29;29.70;29.20
3699;DHT22;1865;50.918;7.092;2022-07-23T16:48:00;29.70;29.40
3699;DHT22;1865;50.918;7.092;2022-07-23T16:50:26;29.80;29.80
3699;DHT22;1865;50.918;7.092;2022-07-23T16:52:52;29.90;29.90
3699;DHT22;1865;50.918;7.092;2022-07-23T16:55:18;29.90;30.00
3699;DHT22;1865;50.918;7.092;2022-07-23T16:57:45;29.80;29.30
3699;DHT22;1865;50.918;7.092;2022-07-23T17:00:12;29.80;29.90